Airfield :
LOGIN :

Register | Disclaimer

   EN    FR    IT 

 










Legend :    VFR   Marginal VFR   IFR   Intensive IFR   Very Intensive IFR
Visi :
Ceiling :
>= 8 km
>= 3000ft
5 to 8 km
1000 to 3000 ft
1500m to 5 km
500 to 1000 ft
800 to 1500m
200 to 500 ft
< 800m
< 200 ft
Symbols :   Thunderstorms  Fog  Heavy snow  Heavy precipitations  Wind > 20 kt
SIGMETs :     Misc.  Thunderstorms  Icing  Turbulence  Mountain Waves  Volcanic Ashes







- Airport Elevation : 1363 ft


ETIC - Grafenwohr Army Air Field

CURRENT METAR :
  • 270556Z AUTO 00000KT 8000 HZ CLR 23/17 A3023 RMK AO2 SLP212 T02330170 10233 20179 53004 $

EXPIRED METARs :
  • 270456Z AUTO 00000KT 8000 HZ CLR 21/18 A3022 RMK AO2 SLP208 T02090181 $
  • 270356Z AUTO 00000KT 6000 BR CLR 18/17 A3022 RMK AO2 SLP210 T01810174 $
  • 270256Z AUTO 00000KT 8000 BR CLR 19/17 A3022 RMK AO2 SLP210 T01870174 53003 $

TAF TAF ETIC
Valid from the 26 at 22:00 until the 28 at 04:00 UTC


262205Z 2622/2804 VRB06KT 9999 SKC QNH3012INS
BECMG 2702/2703 02009KT 9999 FEW040 QNH3013INS
BECMG 2715/2716 34009KT 9999 SKC QNH3015INS TX30/2714Z TN18/2704Z
No reported NOTAMs for that airfield.



MET'MAP, your aeronautical weather chart ! - Copyright ORBIFLY December 2007 - Disclaimer

ORBIFLY MET'MAP TEAM :

Programming & Development : Alexandra Zaïnal
Concept & Development : Baudouin d'Aumeries
Co-Development & Prog : Marc-Olivier Méhu
Technical & hardware support : Manuel Goepfert

Contact : metmap@orbifly.com




SOURCES & CREDITS :

   NOAA